メインページ
METAR-TAF:

METAR-TAF

空港 :

ビクトリア国際空港

ビクトリア, ブリティッシュコロンビア州, カナダ

緯度: 48-39N, 経度: 123-26W, 海抜: 20m

現時点の気象観測

当レポートは43分前の05:00(UTC)に作成
変向風 2kt
気温 11°C
湿度 87%
気圧 1020 hPa
視程: 32.2km
高度2500ftの雲はほとんどない
高度9700ftの雲はほとんどない
高度13000ftの曇り

METAR: CYYJ 160500Z VRB02KT 20SM FEW025 FEW097 OVC130 11/09 A3012 RMK SC1AC2AC6 SC TR SLP202

時間: 21:43 (05:43 UTC)

予報

当レポートは5分前の05:38(UTC)に作成
予報は16日の 06時(UTC)から 17日の 06時(UTC)まで有効
変向風 3kt
視程: 10km
高度2500ftの雲はほとんどない
高度10000ftの千切れ雲あり
16日の 06時(UTC)から 16日の 18時(UTC)まで一時的に
視程: 8.0km
高度1500ftの千切れ雲あり
高度2500ftの曇り
小雨, 靄
16日の 07時(UTC)から 16日の 09時(UTC)まで徐々に
西/北西の風 7kt
16日の 1800時(UTC)から
の風 10kt
視程: 10km
高度2500ftの千切れ雲あり
16日の 18時(UTC)から 16日の 22時(UTC)まで一時的に
高度1500ftの千切れ雲あり
16日の 2200時(UTC)から
北/北西の風 8kt
視程: 10km
高度2500ftの雲はほとんどない
高度4000ftの雲は散在している

TAF: CYYJ 160538Z 1606/1706 VRB03KT P6SM FEW025 BKN100 TEMPO 1606/1618 5SM -RA BR BKN015 OVC025 BECMG 1607/1609 30007KT FM161800 01010KT P6SM BKN025 TEMPO 1618/1622 BKN015 FM162200 34008KT P6SM FEW025 SCT040 RMK NXT FCST BY 161200Z

4,000以上の空港の気象観測と天気予報(METAR報とTAF報)

利用可能な観測所は地図上に黄色い丸と赤い丸で示す。

丸の上にカーソルを重ねると観測所名を参照できる。

次にクリックすると気象観測と天気予報を参照できる。

マップの切り替え:黒色「×」印の緑ボタンをクリックして拡大、「-」印の緑ボタンをクリックして縮小、緑色の三角印をクリックして隣りの地図に切り替え


METAR-TAF: